Hugo, OK

5:17 AM CDT on July 26, 2014 (GMT -0500)
Idabel (K4O4) Elev 472 ft | 33.91 °N, 94.85 °W | Change Station
Active Advisory: Heat Advisory

Current weather conditions updated 22 minutes ago

Clear
Clear
72 °F
Feels Like 72 °F
N
4
Wind Variable Wind from South

Today is forecast to be Warmer than yesterday.

Today
High -- | Low -- °F
--% Chance of Precip.
Yesterday
High -- | Low -- °F
Precip. -- in
6:29 AM 8:27 PM
Waning Crescent, 0% visible
Pressure 29.97 in
Visibility 5.0 miles
Clouds Clear
Dew Point 70 °F
Humidity 94%
Rainfall 0.00 in
Snow Depth Not available.
UV 0 out of 12
Pollen 4.40 out of 12
Air Quality Not available.
Flu Activity Not available.
METAR K4O4 260955Z AUTO 17003KT 5SM CLR 22/21 A2997 RMK AO2

More Conditions Fewer Conditions

Pressure 29.97 in
Visibility 5.0 miles
Clouds Clear
Dew Point 70 °F
Humidity 94%
Rainfall 0.00 in
Snow Depth Not available.
UV 0 out of 12
Pollen 4.40 out of 12
Air Quality Not available.
Flu Activity Not available.
METAR K4O4 260955Z AUTO 17003KT 5SM CLR 22/21 A2997 RMK AO2

More Conditions Fewer Conditions

10-Day Weather Forecast

Almanac

Astronomy

Jul. 26, 2014 Rise Set
Actual Time 6:29 AM CDT 8:27 PM CDT
Civil Twilight 6:01 AM CDT 8:55 PM CDT
Nautical Twilight 5:27 AM CDT 9:28 PM CDT
Astronomical Twilight 4:51 AM CDT 10:04 PM CDT
Moon 6:19 AM CDT 8:07 PM CDT
Length of Visible Light 14h 53m
Length of Day
13h 58m
Tomorrow will be 1m 27s shorter.
Waning Crescent, 0% of the Moon is Illuminated
Today
Waning Crescent
Jul 26
New
Aug 3
First Quarter
Aug 10
Full
Aug 17
Last Quarter

Today's Extremes

State Highs State Lows

Community

WunderPhotos

Upload Photos

1,737,529 photos uploaded!

Nearby

Snow Depth

Station Depth Elevation
No new snow has been reported.

Earthquake Activity

City Distance Mag. Time & Date
Guthrie, Oklahoma 164 miles 2.9 4:45 PM CDT
2014-07-21
Minimum magnitude displayed is 2.5.

Coastal Water Temperatures

Place Temperature
No Stations Reporting

Nearby Weather Stations

There are no personal weather stations in this area.